Terminal Aerodrome Forecast
Issued by NWS Northern Indiana

Home | Current Version | Previous Version | Text Only | Print | Product List | Glossary Off
Versions: 1 2 3 4 5 6 7 8 9 10 11 12 13 14

479
FTUS43 KIWX 232331
TAFFWA
TAF
KFWA 232331Z 2400/2424 12012G18KT P6SM VCSH SCT020 OVC060
      TEMPO 2401/2403 -RA BKN020
     FM240300 11009KT P6SM VCSH OVC020
     FM240500 10008KT P6SM OVC015
     FM241300 08008KT P6SM OVC008=

USA.gov is the U.S. government's official web portal to all federal, state and local government web resources and services.